createdAt,value
2024-01-17T00:00:41.044Z,8.75
2024-01-17T00:05:42.907Z,8.45
2024-01-17T00:10:44.709Z,9.00
2024-01-17T00:15:46.515Z,8.82
2024-01-17T00:20:48.523Z,8.65
2024-01-17T00:25:50.400Z,8.38
2024-01-17T00:30:52.342Z,8.52
2024-01-17T00:35:54.467Z,8.30
2024-01-17T00:40:56.546Z,9.02
2024-01-17T00:45:58.349Z,8.68
2024-01-17T00:51:00.400Z,8.00
2024-01-17T00:56:02.371Z,8.88
2024-01-17T01:01:04.411Z,9.93
2024-01-17T01:06:06.561Z,10.43
2024-01-17T01:11:08.977Z,11.68
2024-01-17T01:16:11.530Z,12.18
2024-01-17T01:21:13.535Z,11.50
2024-01-17T01:26:15.897Z,11.23
2024-01-17T01:31:17.601Z,12.13
2024-01-17T01:36:19.299Z,12.80
2024-01-17T01:41:21.387Z,12.80
2024-01-17T01:46:29.018Z,13.45
2024-01-17T01:51:30.836Z,12.55
2024-01-17T01:56:36.402Z,11.10
2024-01-17T02:01:38.408Z,10.48
2024-01-17T02:06:41.556Z,10.68
2024-01-17T02:11:43.663Z,11.15
2024-01-17T02:16:45.868Z,10.38
2024-01-17T02:21:48.001Z,9.77
2024-01-17T02:26:49.921Z,11.57
2024-01-17T02:31:52.543Z,10.52
2024-01-17T02:36:54.536Z,11.20
2024-01-17T02:41:56.365Z,10.90
2024-01-17T02:46:58.221Z,10.43
2024-01-17T02:51:59.975Z,9.48
2024-01-17T02:57:01.998Z,10.88
2024-01-17T03:02:04.027Z,9.63
2024-01-17T03:07:05.892Z,10.52
2024-01-17T03:12:07.914Z,9.50
2024-01-17T03:17:09.854Z,10.85
2024-01-17T03:22:11.706Z,10.57
2024-01-17T03:27:14.645Z,10.90
2024-01-17T03:32:16.663Z,10.82
2024-01-17T03:37:19.879Z,9.95
2024-01-17T03:42:21.762Z,9.88
2024-01-17T03:47:23.763Z,10.55
2024-01-17T03:52:25.493Z,11.73
2024-01-17T03:57:29.045Z,10.93
2024-01-17T04:02:31.072Z,11.27
2024-01-17T04:07:32.985Z,10.68
2024-01-17T04:12:34.670Z,11.05
2024-01-17T04:17:37.285Z,11.15
2024-01-17T04:22:39.354Z,14.55
2024-01-17T04:27:41.193Z,14.70
2024-01-17T04:32:43.259Z,12.63
2024-01-17T04:37:45.203Z,13.70
2024-01-17T04:42:50.343Z,12.77
2024-01-17T04:47:52.480Z,12.73
2024-01-17T04:52:54.359Z,13.50
2024-01-17T04:57:56.219Z,11.85
2024-01-17T05:02:57.986Z,10.60
2024-01-17T05:07:59.845Z,10.57
2024-01-17T05:13:01.917Z,11.48
2024-01-17T05:18:08.425Z,9.90
2024-01-17T05:23:10.416Z,10.55
2024-01-17T05:28:12.203Z,10.65
2024-01-17T05:33:15.140Z,9.50
2024-01-17T05:38:17.211Z,9.27
2024-01-17T05:43:18.979Z,10.05
2024-01-17T05:48:20.989Z,10.75
2024-01-17T05:53:23.035Z,12.38
2024-01-17T05:58:24.779Z,12.52
2024-01-17T06:03:26.733Z,12.10
2024-01-17T06:08:29.677Z,12.50
2024-01-17T06:13:31.688Z,11.20
2024-01-17T06:18:33.870Z,11.57
2024-01-17T06:23:36.054Z,12.02
2024-01-17T06:28:37.863Z,10.68
2024-01-17T06:33:40.808Z,11.52
2024-01-17T06:38:42.881Z,12.40
2024-01-17T06:43:46.288Z,12.27
2024-01-17T06:48:49.082Z,12.35
2024-01-17T06:53:51.250Z,13.02
2024-01-17T06:58:53.189Z,12.93
2024-01-17T07:03:55.207Z,12.15
2024-01-17T07:08:57.253Z,14.55
2024-01-17T07:13:59.092Z,13.52
2024-01-17T07:19:01.622Z,13.90
2024-01-17T07:24:03.735Z,14.23
2024-01-17T07:29:06.357Z,14.90
2024-01-17T07:34:08.448Z,15.10
2024-01-17T07:39:12.473Z,13.98
2024-01-17T07:44:15.421Z,14.80
2024-01-17T07:49:17.537Z,14.55
2024-01-17T07:54:19.657Z,14.48
2024-01-17T07:59:22.084Z,14.35
2024-01-17T08:04:24.451Z,14.23
2024-01-17T08:09:29.730Z,14.63
2024-01-17T08:14:31.750Z,15.68
2024-01-17T08:19:34.886Z,16.40
2024-01-17T08:24:36.893Z,17.75
2024-01-17T08:29:38.734Z,16.80
2024-01-17T08:34:40.565Z,16.48
2024-01-17T08:39:45.372Z,16.92
2024-01-17T08:44:47.271Z,16.42
2024-01-17T08:49:49.393Z,15.82
2024-01-17T08:54:51.318Z,16.83
2024-01-17T08:59:53.378Z,16.25
2024-01-17T09:04:55.344Z,15.60
2024-01-17T09:09:58.028Z,11.60
2024-01-17T09:15:00.494Z,16.05
2024-01-17T09:20:05.765Z,15.30
2024-01-17T09:25:09.550Z,15.05
2024-01-17T09:30:11.867Z,13.77
2024-01-17T09:35:14.062Z,14.27
2024-01-17T09:40:16.230Z,13.68
2024-01-17T09:45:19.569Z,14.20
2024-01-17T09:50:21.609Z,25.35
2024-01-17T09:55:25.215Z,19.63
2024-01-17T10:00:28.754Z,14.70
2024-01-17T10:05:36.865Z,15.35
2024-01-17T10:10:42.323Z,14.10
2024-01-17T10:15:48.113Z,12.55
2024-01-17T10:20:50.425Z,14.10
2024-01-17T10:25:52.645Z,15.40
2024-01-17T10:30:54.586Z,15.15
2024-01-17T10:35:56.666Z,15.25
2024-01-17T10:41:08.166Z,14.98
2024-01-17T10:46:11.190Z,14.43
2024-01-17T10:51:22.409Z,14.48
2024-01-17T10:56:28.107Z,14.13
2024-01-17T11:01:39.151Z,13.10
2024-01-17T11:06:42.433Z,12.77
2024-01-17T11:11:44.422Z,13.60
2024-01-17T11:16:50.138Z,14.90
2024-01-17T11:21:52.286Z,17.20
2024-01-17T11:27:06.391Z,15.80
2024-01-17T11:32:18.169Z,15.20
2024-01-17T11:37:40.038Z,13.80
2024-01-17T11:42:42.049Z,15.23
2024-01-17T11:47:53.974Z,15.80
2024-01-17T11:52:56.715Z,15.95
2024-01-17T11:58:00.879Z,15.27
2024-01-17T12:03:03.953Z,12.65
2024-01-17T12:08:06.624Z,11.60
2024-01-17T12:13:08.910Z,13.05
2024-01-17T12:18:11.355Z,11.27
2024-01-17T12:23:13.167Z,12.70
2024-01-17T12:28:19.934Z,11.88
2024-01-17T12:33:25.957Z,12.52
2024-01-17T12:38:30.221Z,12.23
2024-01-17T12:43:36.779Z,11.57
2024-01-17T12:53:43.121Z,7.97
2024-01-17T12:58:45.281Z,11.80
2024-01-17T13:04:00.643Z,11.25
2024-01-17T13:09:33.084Z,10.45
2024-01-17T13:14:35.264Z,11.85
2024-01-17T13:19:39.217Z,13.05
2024-01-17T13:24:41.466Z,13.00
2024-01-17T13:29:43.472Z,12.55
2024-01-17T13:34:45.746Z,12.70
2024-01-17T13:39:47.789Z,11.85
2024-01-17T13:44:49.979Z,10.75
2024-01-17T13:49:53.612Z,12.60
2024-01-17T13:54:56.884Z,12.77
2024-01-17T13:59:58.837Z,13.13
2024-01-17T14:05:00.598Z,11.85
2024-01-17T14:10:02.509Z,13.07
2024-01-17T14:15:05.797Z,13.10
2024-01-17T14:20:17.863Z,12.68
2024-01-17T14:25:20.065Z,13.85
2024-01-17T14:30:22.326Z,14.13
2024-01-17T14:35:25.120Z,13.07
2024-01-17T14:40:27.195Z,12.48
2024-01-17T14:45:29.326Z,12.77
2024-01-17T14:50:31.580Z,13.98
2024-01-17T14:55:33.944Z,14.55
2024-01-17T15:00:35.807Z,12.60
2024-01-17T15:05:37.953Z,12.82
2024-01-17T15:10:40.776Z,12.65
2024-01-17T15:15:42.783Z,12.25
2024-01-17T15:20:45.100Z,16.08
2024-01-17T15:25:47.112Z,16.25
2024-01-17T15:30:49.785Z,17.25
2024-01-17T15:35:52.568Z,14.98
2024-01-17T15:40:57.102Z,17.48
2024-01-17T15:46:00.983Z,15.10
2024-01-17T15:51:04.827Z,14.85
2024-01-17T15:56:06.879Z,14.25
2024-01-17T16:01:09.432Z,13.25
2024-01-17T16:06:11.568Z,14.60
2024-01-17T16:11:13.591Z,14.02
2024-01-17T16:16:15.368Z,13.73
2024-01-17T16:21:17.209Z,12.48
2024-01-17T16:26:19.316Z,12.60
2024-01-17T16:31:21.422Z,14.35
2024-01-17T16:36:23.658Z,11.70
2024-01-17T16:41:25.571Z,11.68
2024-01-17T16:46:27.433Z,12.60
2024-01-17T16:51:29.237Z,12.35
2024-01-17T16:56:31.285Z,12.48
2024-01-17T17:01:33.459Z,12.63
2024-01-17T17:06:35.336Z,12.70
2024-01-17T17:11:37.112Z,13.00
2024-01-17T17:16:38.847Z,14.30
2024-01-17T17:21:40.891Z,15.85
2024-01-17T17:26:43.453Z,16.98
2024-01-17T17:31:45.350Z,16.17
2024-01-17T17:36:47.199Z,16.90
2024-01-17T17:41:49.242Z,14.55
2024-01-17T17:46:51.455Z,14.05
2024-01-17T17:51:53.211Z,15.48
2024-01-17T17:56:55.294Z,16.60
2024-01-17T18:01:57.382Z,16.55
2024-01-17T18:06:59.344Z,16.33
2024-01-17T18:12:01.335Z,15.82
2024-01-17T18:17:06.431Z,16.77
2024-01-17T18:22:08.625Z,16.38
2024-01-17T18:27:10.617Z,16.77
2024-01-17T18:32:12.446Z,16.63
2024-01-17T18:37:14.258Z,17.83
2024-01-17T18:42:16.092Z,16.70
2024-01-17T18:47:18.052Z,17.00
2024-01-17T18:52:19.712Z,16.60
2024-01-17T18:57:22.045Z,21.05
2024-01-17T19:02:24.761Z,17.52
2024-01-17T19:07:26.596Z,17.05
2024-01-17T19:12:28.611Z,15.38
2024-01-17T19:17:30.790Z,16.75
2024-01-17T19:22:34.274Z,15.45
2024-01-17T19:27:37.641Z,15.52
2024-01-17T19:32:40.107Z,16.90
2024-01-17T19:37:44.619Z,17.40
2024-01-17T19:42:46.459Z,18.02
2024-01-17T19:47:48.303Z,19.65
2024-01-17T19:52:50.387Z,22.05
2024-01-17T19:57:52.495Z,19.17
2024-01-17T20:02:54.197Z,18.27
2024-01-17T20:07:57.023Z,18.48
2024-01-17T20:13:01.851Z,18.02
2024-01-17T20:18:04.038Z,16.58
2024-01-17T20:23:05.979Z,17.52
2024-01-17T20:28:07.956Z,18.25
2024-01-17T20:33:09.918Z,17.98
2024-01-17T20:38:11.808Z,16.65
2024-01-17T20:43:13.970Z,17.25
2024-01-17T20:48:16.033Z,20.23
2024-01-17T20:53:17.719Z,19.10
2024-01-17T20:58:19.573Z,18.13
2024-01-17T21:03:21.612Z,19.25
2024-01-17T21:08:23.456Z,19.40
2024-01-17T21:13:25.220Z,19.88
2024-01-17T21:18:28.262Z,18.98
2024-01-17T21:23:30.805Z,19.13
2024-01-17T21:28:32.764Z,17.85
2024-01-17T21:33:34.800Z,16.55
2024-01-17T21:38:37.038Z,16.55
2024-01-17T21:43:38.796Z,16.17
2024-01-17T21:48:45.075Z,16.08
2024-01-17T21:53:47.497Z,16.67
2024-01-17T21:58:49.586Z,17.88
2024-01-17T22:03:51.364Z,17.75
2024-01-17T22:08:58.886Z,17.00
2024-01-17T22:14:01.517Z,17.27
2024-01-17T22:19:03.684Z,16.38
2024-01-17T22:24:06.412Z,14.18
2024-01-17T22:29:09.937Z,14.02
2024-01-17T22:34:11.953Z,14.85
2024-01-17T22:39:15.938Z,14.38
2024-01-17T22:44:19.257Z,14.85
2024-01-17T22:49:23.077Z,15.43
2024-01-17T22:54:24.958Z,15.77
2024-01-17T22:59:26.790Z,14.88
2024-01-17T23:04:28.949Z,13.98
2024-01-17T23:09:31.162Z,15.05
2024-01-17T23:14:32.961Z,13.77
2024-01-17T23:19:35.007Z,13.93
2024-01-17T23:24:37.137Z,13.07
2024-01-17T23:29:38.939Z,12.73
2024-01-17T23:34:41.030Z,12.77
2024-01-17T23:39:42.893Z,13.68
2024-01-17T23:44:45.879Z,13.75
2024-01-17T23:49:47.887Z,12.45
2024-01-17T23:54:50.007Z,12.60
2024-01-17T23:59:51.784Z,12.40
